createdAt,value
2019-04-27T00:01:35.209Z,92.10
2019-04-27T00:04:20.397Z,92.30
2019-04-27T00:06:57.843Z,91.70
2019-04-27T00:09:30.364Z,91.20
2019-04-27T00:12:03.549Z,91.00
2019-04-27T00:14:30.378Z,91.40
2019-04-27T00:17:10.562Z,92.40
2019-04-27T00:19:38.915Z,92.60
2019-04-27T00:22:10.487Z,92.40
2019-04-27T00:24:36.946Z,91.90
2019-04-27T00:27:03.615Z,91.30
2019-04-27T00:29:30.195Z,91.10
2019-04-27T00:31:56.745Z,91.70
2019-04-27T00:34:23.681Z,92.10
2019-04-27T00:36:57.976Z,92.80
2019-04-27T00:39:38.107Z,93.00
2019-04-27T00:42:04.974Z,93.20
2019-04-27T00:44:31.506Z,93.50
2019-04-27T00:46:58.056Z,93.90
2019-04-27T00:49:24.614Z,94.30
2019-04-27T00:51:51.037Z,94.30
2019-04-27T00:54:17.633Z,94.10
2019-04-27T00:56:54.861Z,93.90
2019-04-27T00:59:26.175Z,93.80
2019-04-27T01:02:10.966Z,93.50
2019-04-27T01:04:37.605Z,93.70
2019-04-27T01:07:05.479Z,94.20
2019-04-27T01:09:33.879Z,94.60
2019-04-27T01:12:00.595Z,94.40
2019-04-27T01:14:27.050Z,94.10
2019-04-27T01:16:53.509Z,94.00
2019-04-27T01:19:19.964Z,94.30
2019-04-27T01:21:46.409Z,93.90
2019-04-27T01:24:12.989Z,93.90
2019-04-27T01:26:44.415Z,94.00
2019-04-27T01:29:12.795Z,93.70
2019-04-27T01:31:39.725Z,94.40
2019-04-27T01:34:06.195Z,94.90
2019-04-27T01:36:32.644Z,94.50
2019-04-27T01:38:59.574Z,94.20
2019-04-27T01:41:26.209Z,94.30
2019-04-27T01:43:52.770Z,94.30
2019-04-27T01:46:19.630Z,94.20
2019-04-27T01:48:46.493Z,94.40
2019-04-27T01:51:13.173Z,94.70
2019-04-27T01:53:39.629Z,95.40
2019-04-27T01:56:06.148Z,95.20
2019-04-27T01:58:32.721Z,96.10
2019-04-27T02:01:01.173Z,95.70
2019-04-27T02:03:46.183Z,95.50
2019-04-27T02:06:13.042Z,95.60
2019-04-27T02:08:40.403Z,95.60
2019-04-27T02:11:07.250Z,95.40
2019-04-27T02:13:33.910Z,95.30
2019-04-27T02:16:00.352Z,95.40
2019-04-27T02:18:35.659Z,95.60
2019-04-27T02:20:56.668Z,95.60
2019-04-27T02:23:23.143Z,95.00
2019-04-27T02:25:51.319Z,95.90
2019-04-27T02:28:29.448Z,95.90
2019-04-27T02:31:19.202Z,95.70
2019-04-27T02:33:47.383Z,95.50
2019-04-27T02:36:15.187Z,95.60
2019-04-27T02:38:41.954Z,95.80
2019-04-27T02:41:10.017Z,95.60
2019-04-27T02:43:41.306Z,95.00
2019-04-27T02:46:09.552Z,95.60
2019-04-27T02:48:52.875Z,94.70
2019-04-27T02:51:07.226Z,96.10
2019-04-27T02:53:52.326Z,95.00
2019-04-27T02:56:20.214Z,95.40
2019-04-27T02:58:49.356Z,96.90
2019-04-27T03:01:15.235Z,95.10
2019-04-27T03:03:41.683Z,95.90
2019-04-27T03:06:09.828Z,96.20
2019-04-27T03:08:36.590Z,96.60
2019-04-27T03:11:03.226Z,95.90
2019-04-27T03:13:34.315Z,97.80
2019-04-27T03:16:05.638Z,98.10
2019-04-27T03:18:34.079Z,97.80
2019-04-27T03:21:05.469Z,97.70
2019-04-27T03:23:31.910Z,96.40
2019-04-27T03:26:00.531Z,97.30
2019-04-27T03:28:29.660Z,97.00
2019-04-27T03:30:55.511Z,96.50
2019-04-27T03:33:22.834Z,95.60
2019-04-27T03:35:52.614Z,97.30
2019-04-27T03:38:19.744Z,97.20
2019-04-27T03:40:46.433Z,95.60
2019-04-27T03:43:14.991Z,97.20
2019-04-27T03:45:41.422Z,96.20
2019-04-27T03:48:10.186Z,96.10
2019-04-27T03:50:42.928Z,96.10
2019-04-27T03:53:29.665Z,97.10
2019-04-27T03:56:14.962Z,96.80
2019-04-27T03:58:43.410Z,97.00
2019-04-27T04:01:10.514Z,97.10
2019-04-27T04:03:39.355Z,97.40
2019-04-27T04:06:05.807Z,97.00
2019-04-27T04:08:32.378Z,96.20
2019-04-27T04:11:00.869Z,96.80
2019-04-27T04:13:29.606Z,96.60
2019-04-27T04:16:02.978Z,96.10
2019-04-27T04:18:31.786Z,96.90
2019-04-27T04:21:00.463Z,97.30
2019-04-27T04:23:26.701Z,97.00
2019-04-27T04:25:53.148Z,97.00
2019-04-27T04:28:20.105Z,97.50
2019-04-27T04:30:46.880Z,97.60
2019-04-27T04:33:13.463Z,97.30
2019-04-27T04:35:40.128Z,97.30
2019-04-27T04:38:06.679Z,97.00
2019-04-27T04:40:35.042Z,96.60
2019-04-27T04:43:03.649Z,97.50
2019-04-27T04:45:32.537Z,97.60
2019-04-27T04:48:00.902Z,97.70
2019-04-27T04:50:27.332Z,97.80
2019-04-27T04:52:53.980Z,97.40
2019-04-27T04:55:20.635Z,97.20
2019-04-27T04:57:49.291Z,97.10
2019-04-27T05:00:16.024Z,96.90
2019-04-27T05:02:43.678Z,97.50
2019-04-27T05:05:10.203Z,97.70
2019-04-27T05:07:38.614Z,98.00
2019-04-27T05:10:05.640Z,98.00
2019-04-27T05:12:32.141Z,97.80
2019-04-27T05:14:59.091Z,97.90
2019-04-27T05:17:25.706Z,97.60
2019-04-27T05:19:52.925Z,97.80
2019-04-27T05:22:19.659Z,97.70
2019-04-27T05:24:49.327Z,97.60
2019-04-27T05:27:15.793Z,98.00
2019-04-27T05:29:42.257Z,98.30
2019-04-27T05:32:09.204Z,98.10
2019-04-27T05:34:35.781Z,98.40
2019-04-27T05:37:02.320Z,98.40
2019-04-27T05:39:30.017Z,98.20
2019-04-27T05:41:56.640Z,98.40
2019-04-27T05:44:28.652Z,98.30
2019-04-27T05:47:10.001Z,98.40
2019-04-27T05:49:41.094Z,98.20
2019-04-27T05:52:14.440Z,97.50
2019-04-27T05:54:38.539Z,98.10
2019-04-27T05:57:05.207Z,98.10
2019-04-27T05:59:31.666Z,97.50
2019-04-27T06:01:59.303Z,97.00
2019-04-27T06:04:28.981Z,97.20
2019-04-27T06:06:55.282Z,97.40
2019-04-27T06:09:21.826Z,97.60
2019-04-27T06:11:50.265Z,96.60
2019-04-27T06:14:16.651Z,96.60
2019-04-27T06:16:43.117Z,96.00
2019-04-27T06:19:09.756Z,96.50
2019-04-27T06:21:36.355Z,96.40
2019-04-27T06:24:03.197Z,96.60
2019-04-27T06:26:30.052Z,96.60
2019-04-27T06:28:56.731Z,96.00
2019-04-27T06:31:23.293Z,97.80
2019-04-27T06:33:49.804Z,97.00
2019-04-27T06:36:16.212Z,95.70
2019-04-27T06:38:42.627Z,96.50
2019-04-27T06:41:09.974Z,95.60
2019-04-27T06:43:36.763Z,95.70
2019-04-27T06:46:03.306Z,95.70
2019-04-27T06:48:29.834Z,95.10
2019-04-27T06:51:02.549Z,95.40
2019-04-27T06:53:25.710Z,95.90
2019-04-27T06:55:52.150Z,96.60
2019-04-27T06:58:19.999Z,95.90
2019-04-27T07:00:46.957Z,95.30
2019-04-27T07:03:13.512Z,94.30
2019-04-27T07:05:39.966Z,95.50
2019-04-27T07:08:06.405Z,95.50
2019-04-27T07:10:32.837Z,94.70
2019-04-27T07:12:59.685Z,94.10
2019-04-27T07:15:26.640Z,95.00
2019-04-27T07:17:53.135Z,93.80
2019-04-27T07:20:19.616Z,94.70
2019-04-27T07:22:46.152Z,94.70
2019-04-27T07:25:12.704Z,95.70
2019-04-27T07:27:39.587Z,94.70
2019-04-27T07:30:11.460Z,94.30
2019-04-27T07:32:35.415Z,93.90
2019-04-27T07:35:03.498Z,94.20
2019-04-27T07:37:29.924Z,94.20
2019-04-27T07:39:56.476Z,92.80
2019-04-27T07:42:23.708Z,93.60
2019-04-27T07:44:52.205Z,93.40
2019-04-27T07:47:20.616Z,94.80
2019-04-27T07:49:49.703Z,94.00
2019-04-27T07:52:16.519Z,93.50
2019-04-27T07:54:43.062Z,95.00
2019-04-27T07:57:09.920Z,92.80
2019-04-27T07:59:36.573Z,92.40
2019-04-27T08:02:03.524Z,90.40
2019-04-27T08:04:30.207Z,92.30
2019-04-27T08:06:56.955Z,90.30
2019-04-27T08:09:23.400Z,90.30
2019-04-27T08:11:49.895Z,91.60
2019-04-27T08:14:16.434Z,90.30
2019-04-27T08:16:42.998Z,90.50
2019-04-27T08:19:10.502Z,90.60
2019-04-27T08:21:43.526Z,87.40
2019-04-27T08:24:05.321Z,88.60
2019-04-27T08:26:33.681Z,90.20
2019-04-27T08:29:04.996Z,91.50
2019-04-27T08:31:33.409Z,88.60
2019-04-27T08:34:00.134Z,85.80
2019-04-27T08:36:26.873Z,83.10
2019-04-27T08:38:53.370Z,83.10
2019-04-27T08:41:21.282Z,84.90
2019-04-27T08:43:48.815Z,89.20
2019-04-27T08:46:15.361Z,85.70
2019-04-27T08:48:41.964Z,82.60
2019-04-27T08:51:09.554Z,78.00
2019-04-27T08:53:36.345Z,81.10
2019-04-27T08:56:02.829Z,80.00
2019-04-27T08:58:29.304Z,83.00
2019-04-27T09:00:55.776Z,81.90
2019-04-27T09:03:22.323Z,71.00
2019-04-27T09:05:49.115Z,79.50
2019-04-27T09:08:18.981Z,74.60
2019-04-27T09:10:50.409Z,75.50
2019-04-27T09:13:31.077Z,77.70
2019-04-27T09:16:02.428Z,73.50
2019-04-27T09:18:33.329Z,71.20
2019-04-27T09:21:05.786Z,68.00
2019-04-27T09:23:32.309Z,70.70
2019-04-27T09:25:59.456Z,76.00
2019-04-27T09:28:26.167Z,72.10
2019-04-27T09:30:52.747Z,66.00
2019-04-27T09:33:22.094Z,67.30
2019-04-27T09:35:47.507Z,68.60
2019-04-27T09:38:14.054Z,70.90
2019-04-27T09:40:40.511Z,66.90
2019-04-27T09:43:07.537Z,67.20
2019-04-27T09:45:37.178Z,66.60
2019-04-27T09:48:04.235Z,69.90
2019-04-27T09:50:30.936Z,74.30
2019-04-27T09:52:57.472Z,76.10
2019-04-27T09:55:26.151Z,82.90
2019-04-27T09:57:52.446Z,85.00
2019-04-27T10:00:19.824Z,88.20
2019-04-27T10:02:46.653Z,91.40
2019-04-27T10:05:13.598Z,92.00
2019-04-27T10:07:40.149Z,93.70
2019-04-27T10:10:07.208Z,94.30
2019-04-27T10:12:34.449Z,92.70
2019-04-27T10:15:06.035Z,94.00
2019-04-27T10:17:32.851Z,94.80
2019-04-27T10:19:59.364Z,94.40
2019-04-27T10:22:39.954Z,93.20
2019-04-27T10:24:54.070Z,94.20
2019-04-27T10:27:20.711Z,94.80
2019-04-27T10:29:47.171Z,96.30
2019-04-27T10:32:13.664Z,97.20
2019-04-27T10:34:40.162Z,97.30
2019-04-27T10:37:06.625Z,95.90
2019-04-27T10:39:33.097Z,95.00
2019-04-27T10:41:59.774Z,96.80
2019-04-27T10:44:26.710Z,97.90
2019-04-27T10:46:53.475Z,96.60
2019-04-27T10:49:19.926Z,96.50
2019-04-27T10:51:46.365Z,96.10
2019-04-27T10:54:12.837Z,96.80
2019-04-27T10:56:39.495Z,97.10
2019-04-27T10:59:08.199Z,95.00
2019-04-27T11:01:35.930Z,95.50
2019-04-27T11:04:19.672Z,93.90
2019-04-27T11:07:03.011Z,94.90
2019-04-27T11:09:29.611Z,94.30
2019-04-27T11:11:56.795Z,94.10
2019-04-27T11:14:23.611Z,92.20
2019-04-27T11:16:50.133Z,92.10
2019-04-27T11:19:17.066Z,91.70
2019-04-27T11:21:43.630Z,93.20
2019-04-27T11:24:10.234Z,93.20
2019-04-27T11:26:36.776Z,92.20
2019-04-27T11:29:03.778Z,91.60
2019-04-27T11:31:30.410Z,87.00
2019-04-27T11:33:57.595Z,86.20
2019-04-27T11:36:27.092Z,89.00
2019-04-27T11:38:56.509Z,87.20
2019-04-27T11:41:23.051Z,90.00
2019-04-27T11:43:49.658Z,89.30
2019-04-27T11:46:16.831Z,85.30
2019-04-27T11:48:43.474Z,85.60
2019-04-27T11:51:11.061Z,85.80
2019-04-27T11:53:37.851Z,86.90
2019-04-27T11:56:04.440Z,80.60
2019-04-27T11:58:30.999Z,82.30
2019-04-27T12:00:57.585Z,83.30
2019-04-27T12:03:24.333Z,82.00
2019-04-27T12:05:51.116Z,80.40
2019-04-27T12:08:18.184Z,83.00
2019-04-27T12:10:46.346Z,82.20
2019-04-27T12:13:13.445Z,78.30
2019-04-27T12:15:39.977Z,77.70
2019-04-27T12:18:08.825Z,88.60
2019-04-27T12:20:35.915Z,87.70
2019-04-27T12:23:02.776Z,84.00
2019-04-27T12:25:30.317Z,79.90
2019-04-27T12:27:58.779Z,78.40
2019-04-27T12:30:30.300Z,78.30
2019-04-27T12:32:56.984Z,74.60
2019-04-27T12:35:25.557Z,70.50
2019-04-27T12:37:52.166Z,67.00
2019-04-27T12:40:18.891Z,70.10
2019-04-27T12:42:45.573Z,69.30
2019-04-27T12:45:12.752Z,69.60
2019-04-27T12:47:39.400Z,69.10
2019-04-27T12:50:09.100Z,63.40
2019-04-27T12:52:36.123Z,61.20
2019-04-27T12:55:07.094Z,62.10
2019-04-27T12:57:44.525Z,62.20
2019-04-27T13:00:13.185Z,58.80
2019-04-27T13:02:39.755Z,54.70
2019-04-27T13:05:07.134Z,54.30
2019-04-27T13:07:33.673Z,58.00
2019-04-27T13:10:00.415Z,53.90
2019-04-27T13:12:27.359Z,52.20
2019-04-27T13:14:54.062Z,51.80
2019-04-27T13:17:20.841Z,54.00
2019-04-27T13:19:47.508Z,53.00
2019-04-27T13:22:16.559Z,50.50
2019-04-27T13:24:43.495Z,50.20
2019-04-27T13:27:10.164Z,53.30
2019-04-27T13:29:36.726Z,55.10
2019-04-27T13:32:03.379Z,50.60
2019-04-27T13:34:29.935Z,50.70
2019-04-27T13:36:58.187Z,49.40
2019-04-27T13:39:25.759Z,49.00
2019-04-27T13:41:52.475Z,48.50
2019-04-27T13:44:18.938Z,44.40
2019-04-27T13:47:04.027Z,44.50
2019-04-27T13:49:50.598Z,36.40
2019-04-27T13:52:19.087Z,34.30
2019-04-27T13:54:45.888Z,33.10
2019-04-27T13:57:12.711Z,33.80
2019-04-27T13:59:41.799Z,27.30
2019-04-27T14:02:09.872Z,27.20
2019-04-27T14:04:36.440Z,25.80
2019-04-27T14:07:03.118Z,25.00
2019-04-27T14:09:30.715Z,26.70
2019-04-27T14:11:59.295Z,24.40
2019-04-27T14:14:25.794Z,27.10
2019-04-27T14:16:53.168Z,26.30
2019-04-27T14:19:19.669Z,25.80
2019-04-27T14:21:46.115Z,26.50
2019-04-27T14:24:12.660Z,27.20
2019-04-27T14:26:39.130Z,28.10
2019-04-27T14:29:05.591Z,27.20
2019-04-27T14:31:32.299Z,29.10
2019-04-27T14:33:58.841Z,30.10
2019-04-27T14:36:25.568Z,34.80
2019-04-27T14:38:52.104Z,36.60
2019-04-27T14:41:19.228Z,41.20
2019-04-27T14:43:45.882Z,44.00
2019-04-27T14:46:12.885Z,44.70
2019-04-27T14:48:39.573Z,49.40
